Main page
METAR-TAF:

METAR-TAF

Airports :

Svalbard Airport. Longyear

Longyearbyen, Norway

latitude: 78-15N, longitude: 015-28E, elevation: 2 m

Current weather observation

The report was made 17 minutes ago, at 21:20 UTC
Wind 5 kt from the South/Southeast, varying between East and West
Temperature 7°C
Humidity 70%
Pressure 1010 hPa
Visibility 10 km or more
Few clouds at a height of 2000 ft
Broken clouds at a height of 3000 ft

METAR: ENSB 052120Z 15005KT 090V260 9999 FEW020 BKN030 07/02 Q1010 RMK WIND 1400FT 13009KT

Time: 23:37 (21:37 UTC)

Forecast

Forecast valid from 05 at 19 UTC to 06 at 18 UTC
Wind 9 kt from the East/Southeast
Visibility 10 km or more
Few clouds at a height of 1500 ft
Broken clouds at a height of 3000 ft

TAF: ENSB 0519/0618 12009KT 9999 FEW015 BKN030

Weather observations and forecasts of more than 4000 airports (METAR and TAF reports).

The available stations are represented by yellow and red dots on the map.

Hover mouse over dot to see the name of the station.

Then click to see weather observations and forecasts.

To change the map : click on the green buttons with a black cross to zoom in, on the green button with a dash to zoom out, or on the green arrows for adjacent maps.


METAR-TAF: